sensor_id;sensor_type;location;lat;lon;timestamp;pressure;altitude;pressure_sealevel;temperature;humidity
79077;BME280;68477;42.698;23.342;2023-08-31T00:01:30;94869.66;;;20.96;49.67
79077;BME280;68477;42.698;23.342;2023-08-31T00:03:57;94854.47;;;20.62;51.49
79077;BME280;68477;42.698;23.342;2023-08-31T00:06:25;94867.16;;;20.72;50.88
79077;BME280;68477;42.698;23.342;2023-08-31T00:08:50;94861.50;;;20.69;51.02
79077;BME280;68477;42.698;23.342;2023-08-31T00:11:15;94863.41;;;21.07;50.03
79077;BME280;68477;42.698;23.342;2023-08-31T00:13:41;94867.25;;;20.60;51.03
79077;BME280;68477;42.698;23.342;2023-08-31T00:16:06;94869.13;;;20.60;51.29
79077;BME280;68477;42.698;23.342;2023-08-31T00:18:35;94868.69;;;20.34;51.93
79077;BME280;68477;42.698;23.342;2023-08-31T00:21:01;94865.88;;;20.75;50.94
79077;BME280;68477;42.698;23.342;2023-08-31T00:23:27;94863.44;;;20.56;51.46
79077;BME280;68477;42.698;23.342;2023-08-31T00:25:52;94863.53;;;20.28;52.19
79077;BME280;68477;42.698;23.342;2023-08-31T00:28:19;94861.38;;;20.13;52.71
79077;BME280;68477;42.698;23.342;2023-08-31T00:30:44;94864.31;;;20.79;51.09
79077;BME280;68477;42.698;23.342;2023-08-31T00:33:11;94862.56;;;20.84;50.77
79077;BME280;68477;42.698;23.342;2023-08-31T00:35:36;94871.94;;;20.87;50.84
79077;BME280;68477;42.698;23.342;2023-08-31T00:38:02;94879.72;;;20.88;50.76
79077;BME280;68477;42.698;23.342;2023-08-31T00:40:30;94882.19;;;20.95;50.81
79077;BME280;68477;42.698;23.342;2023-08-31T00:42:56;94880.31;;;20.74;50.92
79077;BME280;68477;42.698;23.342;2023-08-31T00:45:23;94883.34;;;20.99;50.52
79077;BME280;68477;42.698;23.342;2023-08-31T00:47:49;94889.91;;;20.91;50.49
79077;BME280;68477;42.698;23.342;2023-08-31T00:50:15;94890.56;;;20.82;50.85
79077;BME280;68477;42.698;23.342;2023-08-31T00:52:41;94886.03;;;20.82;51.15
79077;BME280;68477;42.698;23.342;2023-08-31T00:55:10;94883.53;;;20.59;52.29
79077;BME280;68477;42.698;23.342;2023-08-31T00:57:36;94882.16;;;20.73;51.68
79077;BME280;68477;42.698;23.342;2023-08-31T01:00:02;94890.91;;;20.52;52.59
79077;BME280;68477;42.698;23.342;2023-08-31T01:02:59;94895.16;;;20.36;53.08
79077;BME280;68477;42.698;23.342;2023-08-31T01:08:21;94899.72;;;20.69;52.12
79077;BME280;68477;42.698;23.342;2023-08-31T01:11:04;94900.13;;;20.78;52.07
79077;BME280;68477;42.698;23.342;2023-08-31T01:13:34;94899.06;;;20.79;51.80
79077;BME280;68477;42.698;23.342;2023-08-31T01:16:03;94896.91;;;20.76;52.48
79077;BME280;68477;42.698;23.342;2023-08-31T01:18:31;94898.44;;;20.55;53.06
79077;BME280;68477;42.698;23.342;2023-08-31T01:23:50;94898.59;;;20.65;52.30
79077;BME280;68477;42.698;23.342;2023-08-31T01:26:17;94903.53;;;20.90;51.63
79077;BME280;68477;42.698;23.342;2023-08-31T01:28:42;94902.16;;;20.71;52.06
79077;BME280;68477;42.698;23.342;2023-08-31T01:31:08;94899.69;;;20.35;53.68
79077;BME280;68477;42.698;23.342;2023-08-31T01:33:34;94899.13;;;20.33;53.74
79077;BME280;68477;42.698;23.342;2023-08-31T01:36:04;94896.66;;;20.15;54.42
79077;BME280;68477;42.698;23.342;2023-08-31T01:38:35;94898.88;;;19.90;55.39
79077;BME280;68477;42.698;23.342;2023-08-31T01:41:09;94898.88;;;19.49;56.88
79077;BME280;68477;42.698;23.342;2023-08-31T01:43:37;94912.44;;;19.71;56.28
79077;BME280;68477;42.698;23.342;2023-08-31T01:46:06;94913.03;;;19.62;56.83
79077;BME280;68477;42.698;23.342;2023-08-31T01:48:38;94906.72;;;19.16;58.40
79077;BME280;68477;42.698;23.342;2023-08-31T01:51:04;94905.09;;;19.27;58.17
79077;BME280;68477;42.698;23.342;2023-08-31T01:53:31;94909.34;;;19.39;57.47
79077;BME280;68477;42.698;23.342;2023-08-31T01:55:56;94907.97;;;19.77;56.33
79077;BME280;68477;42.698;23.342;2023-08-31T01:58:21;94913.13;;;19.67;56.71
79077;BME280;68477;42.698;23.342;2023-08-31T02:00:48;94914.16;;;19.54;57.04
79077;BME280;68477;42.698;23.342;2023-08-31T02:03:13;94910.06;;;19.23;58.29
79077;BME280;68477;42.698;23.342;2023-08-31T02:05:39;94920.75;;;19.00;59.09
79077;BME280;68477;42.698;23.342;2023-08-31T02:08:04;94921.22;;;18.85;59.94
79077;BME280;68477;42.698;23.342;2023-08-31T02:10:30;94924.78;;;19.02;59.34
79077;BME280;68477;42.698;23.342;2023-08-31T02:12:55;94927.34;;;18.74;60.11
79077;BME280;68477;42.698;23.342;2023-08-31T02:15:21;94930.47;;;18.71;60.32
79077;BME280;68477;42.698;23.342;2023-08-31T02:17:46;94925.41;;;18.39;61.41
79077;BME280;68477;42.698;23.342;2023-08-31T02:20:11;94918.28;;;18.63;60.61
79077;BME280;68477;42.698;23.342;2023-08-31T02:22:39;94923.88;;;18.85;59.75
79077;BME280;68477;42.698;23.342;2023-08-31T02:25:04;94924.13;;;18.95;59.82
79077;BME280;68477;42.698;23.342;2023-08-31T02:27:30;94920.44;;;18.54;61.51
79077;BME280;68477;42.698;23.342;2023-08-31T02:29:56;94919.03;;;18.40;61.49
79077;BME280;68477;42.698;23.342;2023-08-31T02:32:22;94913.22;;;18.20;62.46
79077;BME280;68477;42.698;23.342;2023-08-31T02:34:47;94910.66;;;18.90;60.04
79077;BME280;68477;42.698;23.342;2023-08-31T02:37:12;94911.25;;;18.92;59.66
79077;BME280;68477;42.698;23.342;2023-08-31T02:39:38;94916.22;;;19.00;59.37
79077;BME280;68477;42.698;23.342;2023-08-31T02:42:05;94917.38;;;19.16;58.99
79077;BME280;68477;42.698;23.342;2023-08-31T02:44:31;94924.34;;;18.82;59.87
79077;BME280;68477;42.698;23.342;2023-08-31T02:46:56;94922.59;;;18.99;59.25
79077;BME280;68477;42.698;23.342;2023-08-31T02:49:22;94927.53;;;18.60;60.89
79077;BME280;68477;42.698;23.342;2023-08-31T02:51:47;94920.50;;;18.78;60.12
79077;BME280;68477;42.698;23.342;2023-08-31T02:54:15;94922.78;;;18.62;60.69
79077;BME280;68477;42.698;23.342;2023-08-31T02:56:40;94931.34;;;18.53;61.21
79077;BME280;68477;42.698;23.342;2023-08-31T02:59:06;94929.06;;;18.80;60.15
79077;BME280;68477;42.698;23.342;2023-08-31T03:01:31;94948.44;;;18.87;59.79
79077;BME280;68477;42.698;23.342;2023-08-31T03:03:57;94948.09;;;18.72;60.53
79077;BME280;68477;42.698;23.342;2023-08-31T03:06:22;94950.38;;;18.68;60.68
79077;BME280;68477;42.698;23.342;2023-08-31T03:08:47;94952.28;;;18.38;61.49
79077;BME280;68477;42.698;23.342;2023-08-31T03:11:13;94949.38;;;18.39;62.23
79077;BME280;68477;42.698;23.342;2023-08-31T03:13:41;94949.16;;;18.41;62.39
79077;BME280;68477;42.698;23.342;2023-08-31T03:16:07;94951.88;;;18.64;61.13
79077;BME280;68477;42.698;23.342;2023-08-31T03:18:32;94949.72;;;18.73;60.73
79077;BME280;68477;42.698;23.342;2023-08-31T03:20:58;94961.69;;;18.52;61.55
79077;BME280;68477;42.698;23.342;2023-08-31T03:23:24;94954.41;;;17.87;63.74
79077;BME280;68477;42.698;23.342;2023-08-31T03:25:50;94954.31;;;17.94;64.04
79077;BME280;68477;42.698;23.342;2023-08-31T03:28:15;94950.78;;;18.12;63.30
79077;BME280;68477;42.698;23.342;2023-08-31T03:30:41;94947.03;;;17.71;65.93
79077;BME280;68477;42.698;23.342;2023-08-31T03:33:06;94937.63;;;17.87;64.44
79077;BME280;68477;42.698;23.342;2023-08-31T03:35:32;94945.22;;;18.01;63.78
79077;BME280;68477;42.698;23.342;2023-08-31T03:37:58;94954.84;;;17.84;64.77
79077;BME280;68477;42.698;23.342;2023-08-31T03:40:23;94955.09;;;17.83;64.94
79077;BME280;68477;42.698;23.342;2023-08-31T03:42:52;94966.34;;;18.15;64.17
79077;BME280;68477;42.698;23.342;2023-08-31T03:45:19;94969.06;;;17.78;65.50
79077;BME280;68477;42.698;23.342;2023-08-31T03:47:46;94965.63;;;17.53;66.27
79077;BME280;68477;42.698;23.342;2023-08-31T03:50:13;94972.81;;;17.34;67.54
79077;BME280;68477;42.698;23.342;2023-08-31T03:52:38;94975.66;;;17.32;67.57
79077;BME280;68477;42.698;23.342;2023-08-31T03:55:04;94979.44;;;16.81;69.58
79077;BME280;68477;42.698;23.342;2023-08-31T03:57:29;94978.44;;;16.76;69.81
79077;BME280;68477;42.698;23.342;2023-08-31T03:59:56;94975.41;;;16.97;69.55
79077;BME280;68477;42.698;23.342;2023-08-31T04:02:23;94979.84;;;17.03;68.63
79077;BME280;68477;42.698;23.342;2023-08-31T04:04:48;94986.94;;;17.09;68.21
79077;BME280;68477;42.698;23.342;2023-08-31T04:07:14;94997.56;;;17.09;68.71
79077;BME280;68477;42.698;23.342;2023-08-31T04:09:39;95002.41;;;17.37;67.59
79077;BME280;68477;42.698;23.342;2023-08-31T04:12:05;95025.91;;;17.40;66.96
79077;BME280;68477;42.698;23.342;2023-08-31T04:14:31;95021.94;;;17.50;66.41
79077;BME280;68477;42.698;23.342;2023-08-31T04:16:57;95034.03;;;17.64;65.87
79077;BME280;68477;42.698;23.342;2023-08-31T04:19:22;95023.75;;;17.74;65.98
79077;BME280;68477;42.698;23.342;2023-08-31T04:21:48;95023.44;;;17.82;65.84
79077;BME280;68477;42.698;23.342;2023-08-31T04:24:13;95024.84;;;17.85;65.45
79077;BME280;68477;42.698;23.342;2023-08-31T04:26:39;95032.88;;;17.96;64.48
79077;BME280;68477;42.698;23.342;2023-08-31T04:29:05;95028.31;;;17.85;65.52
79077;BME280;68477;42.698;23.342;2023-08-31T04:31:31;95023.56;;;17.87;65.62
79077;BME280;68477;42.698;23.342;2023-08-31T04:33:57;95035.72;;;18.01;64.37
79077;BME280;68477;42.698;23.342;2023-08-31T04:36:22;95031.56;;;17.87;65.58
79077;BME280;68477;42.698;23.342;2023-08-31T04:38:48;95025.94;;;17.77;66.20
79077;BME280;68477;42.698;23.342;2023-08-31T04:41:14;95037.81;;;18.11;65.47
79077;BME280;68477;42.698;23.342;2023-08-31T04:43:40;95031.53;;;18.24;64.41
79077;BME280;68477;42.698;23.342;2023-08-31T04:46:05;95042.94;;;18.43;63.60
79077;BME280;68477;42.698;23.342;2023-08-31T04:48:31;95036.25;;;18.52;63.32
79077;BME280;68477;42.698;23.342;2023-08-31T04:50:57;95039.00;;;18.45;63.76
79077;BME280;68477;42.698;23.342;2023-08-31T04:53:22;95047.38;;;18.79;62.53
79077;BME280;68477;42.698;23.342;2023-08-31T04:55:48;95044.38;;;18.87;62.11
79077;BME280;68477;42.698;23.342;2023-08-31T04:58:13;95035.31;;;18.76;62.36
79077;BME280;68477;42.698;23.342;2023-08-31T05:00:39;95037.19;;;18.87;62.05
79077;BME280;68477;42.698;23.342;2023-08-31T05:03:05;95038.59;;;19.02;61.46
79077;BME280;68477;42.698;23.342;2023-08-31T05:05:30;95038.75;;;19.07;61.74
79077;BME280;68477;42.698;23.342;2023-08-31T05:07:56;95044.16;;;18.88;61.76
79077;BME280;68477;42.698;23.342;2023-08-31T05:10:21;95048.59;;;19.06;61.82
79077;BME280;68477;42.698;23.342;2023-08-31T05:12:47;95053.13;;;19.29;61.20
79077;BME280;68477;42.698;23.342;2023-08-31T05:15:13;95052.75;;;19.14;61.03
79077;BME280;68477;42.698;23.342;2023-08-31T05:17:39;95053.38;;;19.51;59.91
79077;BME280;68477;42.698;23.342;2023-08-31T05:20:05;95052.81;;;19.49;59.93
79077;BME280;68477;42.698;23.342;2023-08-31T05:22:30;95065.66;;;19.40;60.24
79077;BME280;68477;42.698;23.342;2023-08-31T05:24:56;95054.41;;;19.50;60.46
79077;BME280;68477;42.698;23.342;2023-08-31T05:27:21;95053.97;;;19.76;59.51
79077;BME280;68477;42.698;23.342;2023-08-31T05:29:47;95052.00;;;19.72;59.90
79077;BME280;68477;42.698;23.342;2023-08-31T05:32:12;95054.28;;;19.22;61.03
79077;BME280;68477;42.698;23.342;2023-08-31T05:34:37;95050.81;;;19.44;60.21
79077;BME280;68477;42.698;23.342;2023-08-31T05:37:04;95051.03;;;19.31;60.86
79077;BME280;68477;42.698;23.342;2023-08-31T05:39:30;95056.00;;;20.10;58.69
79077;BME280;68477;42.698;23.342;2023-08-31T05:41:56;95057.59;;;20.11;58.22
79077;BME280;68477;42.698;23.342;2023-08-31T05:44:22;95055.72;;;19.83;59.50
79077;BME280;68477;42.698;23.342;2023-08-31T05:46:48;95056.91;;;20.03;58.92
79077;BME280;68477;42.698;23.342;2023-08-31T05:49:13;95053.59;;;19.96;58.06
79077;BME280;68477;42.698;23.342;2023-08-31T05:51:39;95043.72;;;19.97;58.44
79077;BME280;68477;42.698;23.342;2023-08-31T05:54:04;95046.41;;;20.66;56.70
79077;BME280;68477;42.698;23.342;2023-08-31T05:56:30;95046.28;;;20.32;57.42
79077;BME280;68477;42.698;23.342;2023-08-31T05:58:55;95047.41;;;20.36;57.53
79077;BME280;68477;42.698;23.342;2023-08-31T06:01:21;95044.59;;;20.54;56.71
79077;BME280;68477;42.698;23.342;2023-08-31T06:03:50;95048.38;;;21.32;54.43
79077;BME280;68477;42.698;23.342;2023-08-31T06:06:15;95047.78;;;21.64;54.05
79077;BME280;68477;42.698;23.342;2023-08-31T06:08:40;95058.56;;;21.18;55.12
79077;BME280;68477;42.698;23.342;2023-08-31T06:11:08;95066.94;;;20.93;55.42
79077;BME280;68477;42.698;23.342;2023-08-31T06:13:34;95069.50;;;20.72;56.02
79077;BME280;68477;42.698;23.342;2023-08-31T06:15:59;95072.75;;;21.19;55.11
79077;BME280;68477;42.698;23.342;2023-08-31T06:18:25;95072.75;;;21.19;54.82
79077;BME280;68477;42.698;23.342;2023-08-31T06:20:51;95077.53;;;21.67;53.20
79077;BME280;68477;42.698;23.342;2023-08-31T06:23:16;95072.28;;;20.93;54.29
79077;BME280;68477;42.698;23.342;2023-08-31T06:25:42;95082.03;;;21.84;52.60
79077;BME280;68477;42.698;23.342;2023-08-31T06:28:07;95079.81;;;21.59;52.43
79077;BME280;68477;42.698;23.342;2023-08-31T06:30:36;95078.84;;;21.65;52.60
79077;BME280;68477;42.698;23.342;2023-08-31T06:33:02;95080.84;;;21.96;51.20
79077;BME280;68477;42.698;23.342;2023-08-31T06:35:27;95092.16;;;21.98;51.29
79077;BME280;68477;42.698;23.342;2023-08-31T06:37:52;95086.91;;;22.25;50.70
79077;BME280;68477;42.698;23.342;2023-08-31T06:40:20;95085.28;;;22.46;48.18
79077;BME280;68477;42.698;23.342;2023-08-31T06:42:46;95092.97;;;22.64;47.87
79077;BME280;68477;42.698;23.342;2023-08-31T06:45:11;95093.16;;;23.02;45.97
79077;BME280;68477;42.698;23.342;2023-08-31T06:47:37;95094.69;;;22.98;45.85
79077;BME280;68477;42.698;23.342;2023-08-31T06:50:02;95096.94;;;22.57;46.60
79077;BME280;68477;42.698;23.342;2023-08-31T06:52:28;95093.19;;;23.07;46.12
79077;BME280;68477;42.698;23.342;2023-08-31T06:54:54;95095.91;;;23.44;44.66
79077;BME280;68477;42.698;23.342;2023-08-31T06:57:21;95099.38;;;23.07;45.41
79077;BME280;68477;42.698;23.342;2023-08-31T06:59:47;95099.16;;;23.14;44.82
79077;BME280;68477;42.698;23.342;2023-08-31T07:02:13;95108.47;;;23.65;44.13
79077;BME280;68477;42.698;23.342;2023-08-31T07:04:38;95097.75;;;23.38;44.52
79077;BME280;68477;42.698;23.342;2023-08-31T07:07:05;95104.16;;;23.64;44.26
79077;BME280;68477;42.698;23.342;2023-08-31T07:09:30;95109.47;;;23.91;43.86
79077;BME280;68477;42.698;23.342;2023-08-31T07:11:56;95104.97;;;23.65;44.29
79077;BME280;68477;42.698;23.342;2023-08-31T07:14:21;95094.31;;;23.43;44.30
79077;BME280;68477;42.698;23.342;2023-08-31T07:16:47;95107.94;;;24.05;43.88
79077;BME280;68477;42.698;23.342;2023-08-31T07:19:12;95112.84;;;24.19;42.95
79077;BME280;68477;42.698;23.342;2023-08-31T07:21:37;95108.88;;;24.26;43.15
79077;BME280;68477;42.698;23.342;2023-08-31T07:24:03;95111.44;;;24.06;43.27
79077;BME280;68477;42.698;23.342;2023-08-31T07:26:29;95111.97;;;24.03;43.33
79077;BME280;68477;42.698;23.342;2023-08-31T07:28:55;95113.13;;;24.22;42.64
79077;BME280;68477;42.698;23.342;2023-08-31T07:31:20;95111.97;;;24.50;42.25
79077;BME280;68477;42.698;23.342;2023-08-31T07:33:46;95115.75;;;24.59;41.96
79077;BME280;68477;42.698;23.342;2023-08-31T07:36:11;95110.16;;;24.71;41.40
79077;BME280;68477;42.698;23.342;2023-08-31T07:38:36;95108.56;;;24.85;41.12
79077;BME280;68477;42.698;23.342;2023-08-31T07:41:03;95111.78;;;24.77;41.44
79077;BME280;68477;42.698;23.342;2023-08-31T07:43:29;95118.03;;;24.98;41.55
79077;BME280;68477;42.698;23.342;2023-08-31T07:45:55;95123.75;;;25.22;40.79
79077;BME280;68477;42.698;23.342;2023-08-31T07:48:21;95119.97;;;25.13;40.90
79077;BME280;68477;42.698;23.342;2023-08-31T07:50:46;95111.69;;;25.60;39.59
79077;BME280;68477;42.698;23.342;2023-08-31T07:53:14;95123.78;;;25.42;40.44
79077;BME280;68477;42.698;23.342;2023-08-31T07:55:39;95117.34;;;25.79;38.74
79077;BME280;68477;42.698;23.342;2023-08-31T07:58:05;95122.19;;;25.77;39.92
79077;BME280;68477;42.698;23.342;2023-08-31T08:00:31;95117.28;;;26.04;39.28
79077;BME280;68477;42.698;23.342;2023-08-31T08:02:56;95121.63;;;26.00;39.20
79077;BME280;68477;42.698;23.342;2023-08-31T08:05:21;95123.75;;;26.19;39.33
79077;BME280;68477;42.698;23.342;2023-08-31T08:07:47;95119.47;;;25.31;40.34
79077;BME280;68477;42.698;23.342;2023-08-31T08:10:12;95111.91;;;25.69;40.40
79077;BME280;68477;42.698;23.342;2023-08-31T08:12:40;95109.69;;;26.42;38.14
79077;BME280;68477;42.698;23.342;2023-08-31T08:15:08;95121.19;;;26.68;37.17
79077;BME280;68477;42.698;23.342;2023-08-31T08:17:35;95119.16;;;26.29;37.40
79077;BME280;68477;42.698;23.342;2023-08-31T08:20:01;95114.66;;;26.79;36.79
79077;BME280;68477;42.698;23.342;2023-08-31T08:22:27;95107.56;;;26.98;36.26
79077;BME280;68477;42.698;23.342;2023-08-31T08:24:52;95107.16;;;27.65;35.38
79077;BME280;68477;42.698;23.342;2023-08-31T08:27:17;95114.56;;;28.12;32.95
79077;BME280;68477;42.698;23.342;2023-08-31T08:29:44;95099.25;;;26.85;34.27
79077;BME280;68477;42.698;23.342;2023-08-31T08:32:10;95104.66;;;27.34;33.79
79077;BME280;68477;42.698;23.342;2023-08-31T08:34:35;95103.03;;;27.33;32.57
79077;BME280;68477;42.698;23.342;2023-08-31T08:37:01;95098.88;;;27.46;33.42
79077;BME280;68477;42.698;23.342;2023-08-31T08:39:28;95111.47;;;27.95;32.85
79077;BME280;68477;42.698;23.342;2023-08-31T08:41:57;95103.25;;;27.42;31.93
79077;BME280;68477;42.698;23.342;2023-08-31T08:44:24;95112.97;;;27.43;30.88
79077;BME280;68477;42.698;23.342;2023-08-31T08:46:51;95111.53;;;27.90;28.72
79077;BME280;68477;42.698;23.342;2023-08-31T08:49:18;95101.88;;;28.07;28.14
79077;BME280;68477;42.698;23.342;2023-08-31T08:51:45;95107.75;;;28.14;28.41
79077;BME280;68477;42.698;23.342;2023-08-31T08:54:13;95100.72;;;28.66;28.33
79077;BME280;68477;42.698;23.342;2023-08-31T08:56:38;95109.00;;;27.69;30.05
79077;BME280;68477;42.698;23.342;2023-08-31T08:59:05;95113.28;;;28.57;28.65
79077;BME280;68477;42.698;23.342;2023-08-31T09:01:32;95111.53;;;28.42;27.69
79077;BME280;68477;42.698;23.342;2023-08-31T09:03:57;95120.97;;;28.93;28.31
79077;BME280;68477;42.698;23.342;2023-08-31T09:06:24;95111.19;;;28.73;27.55
79077;BME280;68477;42.698;23.342;2023-08-31T09:08:56;95101.81;;;28.41;27.76
79077;BME280;68477;42.698;23.342;2023-08-31T09:11:22;95107.94;;;29.33;26.54
79077;BME280;68477;42.698;23.342;2023-08-31T09:13:49;95114.47;;;28.94;27.54
79077;BME280;68477;42.698;23.342;2023-08-31T09:16:30;95111.16;;;28.54;27.96
79077;BME280;68477;42.698;23.342;2023-08-31T09:18:57;95112.47;;;28.57;28.10
79077;BME280;68477;42.698;23.342;2023-08-31T09:21:36;95108.19;;;28.75;27.32
79077;BME280;68477;42.698;23.342;2023-08-31T09:24:02;95104.50;;;28.41;27.86
79077;BME280;68477;42.698;23.342;2023-08-31T09:26:27;95108.91;;;28.37;28.56
79077;BME280;68477;42.698;23.342;2023-08-31T09:28:53;95111.56;;;28.85;27.94
79077;BME280;68477;42.698;23.342;2023-08-31T09:31:18;95109.00;;;29.37;27.37
79077;BME280;68477;42.698;23.342;2023-08-31T09:33:51;95110.47;;;29.48;27.58
79077;BME280;68477;42.698;23.342;2023-08-31T09:36:17;95115.22;;;28.99;27.46
79077;BME280;68477;42.698;23.342;2023-08-31T09:38:43;95111.13;;;28.78;26.91
79077;BME280;68477;42.698;23.342;2023-08-31T09:41:09;95110.66;;;28.71;28.36
79077;BME280;68477;42.698;23.342;2023-08-31T09:43:34;95103.16;;;28.87;27.35
79077;BME280;68477;42.698;23.342;2023-08-31T09:46:02;95107.47;;;29.12;26.92
79077;BME280;68477;42.698;23.342;2023-08-31T09:48:28;95109.66;;;29.28;26.60
79077;BME280;68477;42.698;23.342;2023-08-31T09:50:55;95104.00;;;29.95;25.88
79077;BME280;68477;42.698;23.342;2023-08-31T09:53:21;95100.56;;;29.01;27.17
79077;BME280;68477;42.698;23.342;2023-08-31T09:55:48;95098.88;;;29.42;27.21
79077;BME280;68477;42.698;23.342;2023-08-31T09:58:17;95095.41;;;28.80;27.57
79077;BME280;68477;42.698;23.342;2023-08-31T10:00:44;95103.88;;;29.35;27.26
79077;BME280;68477;42.698;23.342;2023-08-31T10:03:11;95103.31;;;30.03;25.51
79077;BME280;68477;42.698;23.342;2023-08-31T10:05:40;95099.19;;;29.92;25.77
79077;BME280;68477;42.698;23.342;2023-08-31T10:08:06;95083.38;;;29.48;24.19
79077;BME280;68477;42.698;23.342;2023-08-31T10:10:33;95096.34;;;29.97;24.05
79077;BME280;68477;42.698;23.342;2023-08-31T10:12:59;95101.28;;;28.63;25.19
79077;BME280;68477;42.698;23.342;2023-08-31T10:15:31;95092.50;;;30.17;23.65
79077;BME280;68477;42.698;23.342;2023-08-31T10:17:59;95097.44;;;30.29;24.66
79077;BME280;68477;42.698;23.342;2023-08-31T10:20:25;95101.97;;;30.61;22.68
79077;BME280;68477;42.698;23.342;2023-08-31T10:22:54;95091.38;;;29.72;23.31
79077;BME280;68477;42.698;23.342;2023-08-31T10:25:21;95090.31;;;29.86;23.18
79077;BME280;68477;42.698;23.342;2023-08-31T10:27:47;95097.31;;;30.06;23.14
79077;BME280;68477;42.698;23.342;2023-08-31T10:30:27;95086.72;;;29.91;23.36
79077;BME280;68477;42.698;23.342;2023-08-31T10:35:55;95095.28;;;31.22;22.41
79077;BME280;68477;42.698;23.342;2023-08-31T10:38:31;95101.66;;;30.35;22.77
79077;BME280;68477;42.698;23.342;2023-08-31T10:43:52;95101.69;;;28.99;25.30
79077;BME280;68477;42.698;23.342;2023-08-31T10:49:06;95107.72;;;29.10;25.70
79077;BME280;68477;42.698;23.342;2023-08-31T10:51:41;95099.38;;;29.44;25.43
79077;BME280;68477;42.698;23.342;2023-08-31T10:54:31;95107.16;;;29.13;26.10
79077;BME280;68477;42.698;23.342;2023-08-31T10:59:41;95107.78;;;29.43;25.84
79077;BME280;68477;42.698;23.342;2023-08-31T11:02:07;95110.91;;;29.36;26.32
79077;BME280;68477;42.698;23.342;2023-08-31T11:04:52;95115.25;;;30.49;25.45
79077;BME280;68477;42.698;23.342;2023-08-31T11:07:22;95103.53;;;29.74;26.25
79077;BME280;68477;42.698;23.342;2023-08-31T11:09:48;95110.47;;;28.86;27.68
79077;BME280;68477;42.698;23.342;2023-08-31T11:12:14;95102.75;;;29.36;27.26
79077;BME280;68477;42.698;23.342;2023-08-31T11:14:40;95113.00;;;29.39;26.98
79077;BME280;68477;42.698;23.342;2023-08-31T11:17:06;95119.91;;;29.50;26.59
79077;BME280;68477;42.698;23.342;2023-08-31T11:19:33;95115.63;;;29.82;26.36
79077;BME280;68477;42.698;23.342;2023-08-31T11:22:03;95109.56;;;29.15;27.21
79077;BME280;68477;42.698;23.342;2023-08-31T11:24:33;95113.59;;;28.75;27.32
79077;BME280;68477;42.698;23.342;2023-08-31T11:26:59;95109.22;;;29.03;27.09
79077;BME280;68477;42.698;23.342;2023-08-31T11:29:24;95108.03;;;28.90;27.04
79077;BME280;68477;42.698;23.342;2023-08-31T11:31:50;95109.94;;;29.08;27.13
79077;BME280;68477;42.698;23.342;2023-08-31T11:34:17;95109.13;;;29.08;27.35
79077;BME280;68477;42.698;23.342;2023-08-31T11:36:44;95112.34;;;28.91;27.64
79077;BME280;68477;42.698;23.342;2023-08-31T11:39:11;95117.28;;;28.84;26.30
79077;BME280;68477;42.698;23.342;2023-08-31T11:41:37;95103.00;;;28.78;26.81
79077;BME280;68477;42.698;23.342;2023-08-31T11:44:13;95110.84;;;28.80;26.79
79077;BME280;68477;42.698;23.342;2023-08-31T11:46:39;95115.66;;;30.42;26.38
79077;BME280;68477;42.698;23.342;2023-08-31T11:49:07;95110.44;;;29.67;27.83
79077;BME280;68477;42.698;23.342;2023-08-31T11:51:33;95112.94;;;29.63;28.11
79077;BME280;68477;42.698;23.342;2023-08-31T11:54:01;95105.28;;;30.17;27.01
79077;BME280;68477;42.698;23.342;2023-08-31T11:56:43;95105.44;;;31.30;25.28
79077;BME280;68477;42.698;23.342;2023-08-31T11:59:12;95104.88;;;30.92;25.85
79077;BME280;68477;42.698;23.342;2023-08-31T12:01:40;95098.28;;;29.97;27.10
79077;BME280;68477;42.698;23.342;2023-08-31T12:04:16;95110.84;;;28.80;28.96
79077;BME280;68477;42.698;23.342;2023-08-31T12:06:46;95098.66;;;29.01;28.89
79077;BME280;68477;42.698;23.342;2023-08-31T12:09:13;95096.28;;;30.02;27.07
79077;BME280;68477;42.698;23.342;2023-08-31T12:11:39;95098.31;;;30.10;27.06
79077;BME280;68477;42.698;23.342;2023-08-31T12:14:19;95089.09;;;30.94;25.57
79077;BME280;68477;42.698;23.342;2023-08-31T12:16:45;95089.66;;;31.77;24.87
79077;BME280;68477;42.698;23.342;2023-08-31T12:19:10;95083.25;;;31.37;25.04
79077;BME280;68477;42.698;23.342;2023-08-31T12:21:36;95090.91;;;30.98;24.81
79077;BME280;68477;42.698;23.342;2023-08-31T12:24:01;95087.66;;;31.69;24.45
79077;BME280;68477;42.698;23.342;2023-08-31T12:26:28;95069.75;;;31.09;24.36
79077;BME280;68477;42.698;23.342;2023-08-31T12:28:54;95069.47;;;30.97;25.65
79077;BME280;68477;42.698;23.342;2023-08-31T12:31:21;95080.00;;;31.93;24.16
79077;BME280;68477;42.698;23.342;2023-08-31T12:33:47;95082.59;;;31.17;25.45
79077;BME280;68477;42.698;23.342;2023-08-31T12:36:12;95087.59;;;31.38;24.65
79077;BME280;68477;42.698;23.342;2023-08-31T12:38:38;95084.50;;;30.81;26.14
79077;BME280;68477;42.698;23.342;2023-08-31T12:41:04;95083.34;;;30.95;25.77
79077;BME280;68477;42.698;23.342;2023-08-31T12:43:31;95086.69;;;31.42;25.08
79077;BME280;68477;42.698;23.342;2023-08-31T12:45:56;95086.75;;;31.01;25.23
79077;BME280;68477;42.698;23.342;2023-08-31T12:48:22;95088.59;;;30.51;26.32
79077;BME280;68477;42.698;23.342;2023-08-31T12:50:48;95080.19;;;29.92;26.57
79077;BME280;68477;42.698;23.342;2023-08-31T12:53:14;95078.75;;;29.81;26.85
79077;BME280;68477;42.698;23.342;2023-08-31T12:55:39;95072.22;;;29.49;26.57
79077;BME280;68477;42.698;23.342;2023-08-31T12:58:06;95085.50;;;29.13;27.38
79077;BME280;68477;42.698;23.342;2023-08-31T13:00:31;95085.56;;;28.65;28.27
79077;BME280;68477;42.698;23.342;2023-08-31T13:02:57;95079.50;;;28.26;28.04
79077;BME280;68477;42.698;23.342;2023-08-31T13:05:22;95076.91;;;29.06;27.22